Time;durP1;ratioP1;P1;durP2;ratioP2;P2;SDS_P1;SDS_P2;PMS_P1;PMS_P2;Temp;Humidity;BMP_temperature;BMP_pressure;BME280_temperature;BME280_humidity;BME280_pressure;Samples;Min_cycle;Max_cycle;Signal;HPM_P1;HPM_P2
2023/12/13 00:01:31;;;;;;;0.20;0.20;;;;;;;3.50;89.94;99676.66;15669964;28;20041;-46
2023/12/13 00:09:08;;;;;;;0.20;0.20;;;;;;;3.68;88.91;99647.00;15669017;28;20120;-47
2023/12/13 00:16:51;;;;;;;0.00;0.00;;;;;;;3.42;90.22;99642.31;15653079;28;20053;-49
2023/12/13 00:24:25;;;;;;;0.00;0.00;;;;;;;3.51;90.56;99629.75;15645232;28;20033;-45
2023/12/13 00:31:59;;;;;;;0.43;0.30;;;;;;;3.63;89.49;99635.31;15640556;28;20486;-46
2023/12/13 00:39:34;;;;;;;0.20;0.20;;;;;;;3.51;89.68;99633.22;15672725;28;20079;-45
2023/12/13 00:47:07;;;;;;;0.17;0.17;;;;;;;3.83;89.08;99628.34;15666217;28;20120;-47
2023/12/13 00:54:42;;;;;;;0.52;0.52;;;;;;;3.69;89.21;99623.97;15672757;28;20041;-47
2023/12/13 01:02:16;;;;;;;0.22;0.22;;;;;;;3.72;88.80;99615.59;15671293;28;20045;-47
2023/12/13 01:09:52;;;;;;;0.50;0.50;;;;;;;3.74;89.63;99611.75;15665839;28;20062;-46
2023/12/13 01:17:29;;;;;;;0.57;0.57;;;;;;;3.54;89.79;99614.25;15678575;28;20044;-50
2023/12/13 01:25:04;;;;;;;0.10;0.10;;;;;;;3.68;88.90;99595.75;15657379;28;20052;-47
2023/12/13 01:32:37;;;;;;;2.35;1.90;;;;;;;3.58;89.52;99598.75;15677908;28;20037;-50
2023/12/13 01:40:12;;;;;;;3.00;1.27;;;;;;;3.64;89.63;99591.84;15673286;28;20041;-48
2023/12/13 01:47:45;;;;;;;0.95;0.95;;;;;;;4.04;87.40;99600.91;15661069;28;20664;-47
2023/12/13 01:55:22;;;;;;;0.40;0.40;;;;;;;3.67;88.99;99591.47;15670179;28;20505;-47
2023/12/13 02:02:57;;;;;;;1.45;1.35;;;;;;;3.87;88.03;99583.63;15670140;28;20081;-47
2023/12/13 02:10:31;;;;;;;1.50;1.42;;;;;;;3.73;89.30;99572.13;15674657;28;20041;-48
2023/12/13 02:18:07;;;;;;;0.35;0.35;;;;;;;3.98;87.68;99552.06;15675084;28;20041;-47
2023/12/13 02:25:48;;;;;;;0.65;0.65;;;;;;;3.64;89.65;99539.63;15661822;28;20044;-47
2023/12/13 02:33:24;;;;;;;0.07;0.07;;;;;;;3.84;89.10;99516.66;15665710;28;20402;-48
2023/12/13 02:40:59;;;;;;;2.28;1.40;;;;;;;3.60;89.18;99484.50;15672639;28;20353;-49
2023/12/13 02:48:32;;;;;;;35.83;1.55;;;;;;;3.99;87.90;99513.88;15653657;28;20489;-47
2023/12/13 02:56:08;;;;;;;0.68;0.68;;;;;;;4.20;87.66;99518.25;15673149;28;20133;-47
2023/12/13 03:03:42;;;;;;;0.65;0.65;;;;;;;4.01;88.58;99508.34;15669274;28;20033;-47
2023/12/13 03:11:19;;;;;;;4.38;0.68;;;;;;;3.80;89.13;99503.97;15646541;28;20258;-47
2023/12/13 03:18:52;;;;;;;0.52;0.52;;;;;;;3.80;89.36;99501.34;15651180;28;20045;-48
2023/12/13 03:26:27;;;;;;;4.68;4.25;;;;;;;3.69;90.21;99489.44;15654725;28;20494;-47
2023/12/13 03:34:00;;;;;;;0.32;0.32;;;;;;;3.86;89.69;99478.47;15667625;28;20470;-47
2023/12/13 03:41:35;;;;;;;0.00;0.00;;;;;;;4.13;88.56;99479.41;15667516;28;20037;-48
2023/12/13 03:49:08;;;;;;;1.77;1.50;;;;;;;3.81;89.60;99461.31;15665139;28;20041;-50
2023/12/13 03:56:45;;;;;;;1.70;1.05;;;;;;;3.98;89.05;99466.28;15668787;28;20513;-47
2023/12/13 04:04:18;;;;;;;0.10;0.10;;;;;;;4.70;86.38;99470.13;15657413;28;20414;-47
2023/12/13 04:11:57;;;;;;;0.95;0.90;;;;;;;4.72;86.43;99465.44;15663797;28;20048;-47
2023/12/13 04:19:30;;;;;;;0.22;0.22;;;;;;;4.75;86.08;99462.34;15665732;28;20065;-51
2023/12/13 04:27:06;;;;;;;1.08;0.98;;;;;;;4.42;87.55;99465.78;15678886;28;20045;-47
2023/12/13 04:34:40;;;;;;;1.40;1.05;;;;;;;4.81;86.59;99461.56;15664911;28;20394;-47
2023/12/13 04:42:16;;;;;;;0.77;0.77;;;;;;;5.28;84.32;99449.84;15671862;28;20508;-50
2023/12/13 04:49:50;;;;;;;0.10;0.10;;;;;;;4.65;87.25;99440.69;15672003;28;20167;-47
2023/12/13 04:57:26;;;;;;;4.60;1.55;;;;;;;4.64;87.42;99436.41;15654733;28;20040;-49
2023/12/13 05:05:00;;;;;;;0.75;0.75;;;;;;;4.59;88.04;99437.00;15660954;28;20573;-50
2023/12/13 05:12:34;;;;;;;;;;;;;;;4.81;86.45;99427.00;15635963;28;20056;-47
2023/12/13 05:20:10;;;;;;;1.70;1.55;;;;;;;4.63;86.67;99430.25;15662021;28;19921;-48
2023/12/13 05:27:45;;;;;;;2.05;1.27;;;;;;;4.72;87.27;99428.22;15677465;28;20041;-47
2023/12/13 05:35:19;;;;;;;0.17;0.17;;;;;;;4.81;86.85;99433.13;15669471;28;20037;-52
2023/12/13 05:42:54;;;;;;;;;;;;;;;4.86;86.80;99425.34;15657900;28;20451;-47
2023/12/13 05:50:27;;;;;;;2.38;1.52;;;;;;;4.71;87.01;99423.91;15669809;28;20385;-48
2023/12/13 05:58:04;;;;;;;0.47;0.47;;;;;;;4.77;87.22;99418.63;15641473;28;20045;-48
2023/12/13 06:05:37;;;;;;;0.60;0.50;;;;;;;4.41;89.55;99420.84;15672841;28;20124;-47
2023/12/13 06:13:12;;;;;;;0.20;0.20;;;;;;;4.46;88.62;99399.78;15675474;28;20045;-49
2023/12/13 06:20:46;;;;;;;3.40;2.45;;;;;;;4.63;88.79;99424.13;15656142;28;20155;-48
2023/12/13 06:28:22;;;;;;;;;;;;;;;4.55;88.43;99407.34;15658538;28;20037;-47
2023/12/13 06:35:55;;;;;;;17.77;1.73;;;;;;;4.90;86.80;99403.69;15674074;28;20152;-49
2023/12/13 06:43:31;;;;;;;0.30;0.30;;;;;;;4.48;88.63;99405.75;15673676;28;20088;-48
2023/12/13 06:51:07;;;;;;;0.90;0.90;;;;;;;4.62;88.25;99415.34;15665913;28;20053;-47
2023/12/13 06:58:42;;;;;;;8.30;1.20;;;;;;;4.77;87.82;99413.28;15639803;28;20094;-49
2023/12/13 07:06:17;;;;;;;0.15;0.15;;;;;;;4.91;87.29;99414.09;15674212;28;20044;-50
2023/12/13 07:13:52;;;;;;;0.25;0.25;;;;;;;4.58;88.83;99425.56;15654473;28;20036;-48
2023/12/13 07:21:25;;;;;;;0.68;0.68;;;;;;;5.11;87.96;99430.84;15637861;28;20111;-49
2023/12/13 07:29:00;;;;;;;1.13;0.98;;;;;;;4.76;88.39;99429.47;15674794;28;20351;-46
2023/12/13 07:36:34;;;;;;;3.67;2.63;;;;;;;4.69;89.32;99423.31;15623096;28;20120;-46
2023/12/13 07:44:09;;;;;;;2.60;1.33;;;;;;;5.21;87.59;99421.63;15612558;28;20099;-46
2023/12/13 07:51:42;;;;;;;0.73;0.73;;;;;;;4.85;88.74;99426.38;15671429;28;20540;-47
2023/12/13 07:59:19;;;;;;;0.10;0.10;;;;;;;4.83;89.03;99423.09;15670056;28;20466;-50
2023/12/13 08:06:52;;;;;;;0.90;0.60;;;;;;;4.75;89.29;99430.47;15619266;28;20037;-48
2023/12/13 08:14:30;;;;;;;;;;;;;;;5.19;88.08;99418.38;15655531;28;20037;-50
2023/12/13 08:22:04;;;;;;;0.35;0.35;;;;;;;5.01;88.54;99429.63;15669369;28;19921;-46
2023/12/13 08:29:40;;;;;;;0.50;0.50;;;;;;;5.24;87.64;99431.84;15670403;28;20401;-47
2023/12/13 08:37:14;;;;;;;0.90;0.82;;;;;;;5.40;87.72;99434.06;15669221;28;20041;-52
2023/12/13 08:44:49;;;;;;;0.80;0.63;;;;;;;5.28;88.90;99428.56;15661877;28;20068;-48
2023/12/13 08:52:26;;;;;;;0.32;0.32;;;;;;;5.42;89.60;99445.34;15653943;28;20068;-47
2023/12/13 09:00:01;;;;;;;0.45;0.40;;;;;;;5.54;88.27;99438.31;15652211;28;20052;-47
2023/12/13 09:07:35;;;;;;;0.30;0.30;;;;;;;5.66;88.14;99453.66;15655429;28;20110;-46
2023/12/13 09:15:10;;;;;;;0.35;0.35;;;;;;;5.92;86.48;99444.78;15680171;28;20040;-48
2023/12/13 09:22:44;;;;;;;0.10;0.10;;;;;;;5.89;86.35;99453.97;15682550;28;20041;-57
2023/12/13 09:30:18;;;;;;;0.55;0.55;;;;;;;6.02;86.46;99461.94;15662737;28;20048;-46
2023/12/13 09:37:53;;;;;;;1.25;1.15;;;;;;;5.79;87.99;99458.94;15679955;28;20065;-47
2023/12/13 09:45:31;;;;;;;0.82;0.60;;;;;;;5.74;87.60;99469.41;15670214;28;20045;-47
2023/12/13 09:53:07;;;;;;;0.03;0.03;;;;;;;5.30;89.48;99465.59;15659366;28;20036;-49
2023/12/13 10:00:43;;;;;;;0.10;0.10;;;;;;;5.41;90.34;99454.34;15663839;28;20536;-47
2023/12/13 10:08:16;;;;;;;0.55;0.55;;;;;;;5.69;88.62;99459.38;15681183;28;20056;-49
2023/12/13 10:15:53;;;;;;;0.82;0.55;;;;;;;5.55;89.26;99458.59;15679490;28;20402;-46
2023/12/13 10:23:28;;;;;;;0.35;0.35;;;;;;;5.30;90.40;99455.78;15679100;28;20064;-46
2023/12/13 10:31:04;;;;;;;0.00;0.00;;;;;;;5.29;91.13;99443.50;15677872;28;20073;-49
2023/12/13 10:38:40;;;;;;;0.15;0.10;;;;;;;5.23;90.56;99462.16;15659823;28;20037;-48
2023/12/13 10:46:17;;;;;;;0.30;0.30;;;;;;;5.43;90.20;99449.63;15652150;28;20051;-48
2023/12/13 10:53:52;;;;;;;0.13;0.13;;;;;;;5.35;90.04;99445.31;15677111;28;20045;-50
2023/12/13 11:01:28;;;;;;;0.82;0.82;;;;;;;5.31;89.83;99454.75;15625497;28;20577;-47
2023/12/13 11:09:09;;;;;;;0.38;0.38;;;;;;;5.16;90.14;99448.84;15676067;28;20048;-50
2023/12/13 11:16:47;;;;;;;0.32;0.32;;;;;;;5.70;89.11;99458.34;15676109;28;20095;-48
2023/12/13 11:24:25;;;;;;;0.10;0.10;;;;;;;5.61;88.00;99460.41;15658541;28;20044;-48
2023/12/13 11:32:02;;;;;;;0.30;0.30;;;;;;;5.55;88.77;99461.28;15674442;28;20041;-49
2023/12/13 11:39:36;;;;;;;0.85;0.85;;;;;;;5.54;88.77;99464.13;15674239;28;20068;-49
2023/12/13 11:47:12;;;;;;;0.80;0.80;;;;;;;5.71;88.35;99459.16;15674301;28;20165;-48
2023/12/13 11:54:49;;;;;;;1.55;1.27;;;;;;;5.73;88.08;99467.75;15657579;28;20571;-49
2023/12/13 12:02:24;;;;;;;0.10;0.10;;;;;;;5.97;86.52;99452.94;15666441;28;20068;-46
2023/12/13 12:10:00;;;;;;;0.28;0.28;;;;;;;6.07;86.46;99471.97;15672536;28;20048;-49
2023/12/13 12:17:36;;;;;;;0.28;0.28;;;;;;;6.36;84.78;99467.91;15675087;28;20114;-45
2023/12/13 12:25:12;;;;;;;0.20;0.20;;;;;;;5.94;87.85;99470.16;15674931;28;20107;-48
2023/12/13 12:32:48;;;;;;;0.60;0.43;;;;;;;5.74;87.41;99470.22;15674490;28;20044;-44
2023/12/13 12:40:25;;;;;;;0.60;0.60;;;;;;;6.07;86.61;99480.78;15658542;28;20135;-45
2023/12/13 12:48:00;;;;;;;0.50;0.50;;;;;;;6.16;86.16;99492.00;15684876;28;20541;-45
2023/12/13 12:55:34;;;;;;;1.35;1.30;;;;;;;6.43;84.98;99492.66;15685101;28;20064;-46
2023/12/13 13:03:09;;;;;;;4.20;1.75;;;;;;;6.44;84.30;99490.84;15684779;28;20033;-47
2023/12/13 13:10:42;;;;;;;0.20;0.20;;;;;;;6.60;83.43;99482.31;15666590;28;20049;-46
2023/12/13 13:18:17;;;;;;;0.70;0.70;;;;;;;6.20;85.60;99498.56;15682762;28;20045;-44
2023/12/13 13:25:51;;;;;;;1.30;1.13;;;;;;;6.26;86.47;99510.22;15680916;28;20041;-47
2023/12/13 13:33:26;;;;;;;0.50;0.50;;;;;;;6.11;87.42;99507.81;15682211;28;20501;-48
2023/12/13 13:41:00;;;;;;;0.43;0.43;;;;;;;6.05;86.84;99505.97;15661630;28;20195;-48
2023/12/13 13:48:34;;;;;;;;;;;;;;;6.06;86.75;99512.94;15686579;28;20506;-45
2023/12/13 13:56:08;;;;;;;0.98;0.98;;;;;;;6.07;86.45;99518.06;15679346;28;19952;-45
2023/12/13 14:03:43;;;;;;;2.85;1.30;;;;;;;6.23;86.71;99519.44;15657320;28;20421;-45
2023/12/13 14:11:17;;;;;;;0.17;0.17;;;;;;;5.88;88.28;99524.25;15681442;28;20060;-47
2023/12/13 14:18:52;;;;;;;0.47;0.47;;;;;;;5.68;88.67;99537.59;15681570;28;20041;-49
2023/12/13 14:26:25;;;;;;;4.82;0.98;;;;;;;5.86;88.24;99543.09;15680155;28;20406;-47
2023/12/13 14:34:01;;;;;;;0.03;0.03;;;;;;;5.63;89.16;99546.19;15680508;28;20044;-47
2023/12/13 14:41:35;;;;;;;1.77;1.65;;;;;;;5.49;90.38;99546.44;15658588;28;20131;-49
2023/12/13 14:49:10;;;;;;;0.73;0.73;;;;;;;5.79;89.00;99552.94;15673856;28;20049;-49
2023/12/13 14:56:46;;;;;;;0.20;0.20;;;;;;;5.63;89.58;99556.03;15675409;28;20037;-47
2023/12/13 15:04:21;;;;;;;0.77;0.75;;;;;;;5.56;90.33;99552.59;15676263;28;20311;-45
2023/12/13 15:11:56;;;;;;;2.03;1.70;;;;;;;5.18;92.00;99563.03;15676538;28;20053;-44
2023/12/13 15:19:31;;;;;;;0.68;0.55;;;;;;;5.24;91.75;99559.56;15676488;28;20037;-44
2023/12/13 15:27:04;;;;;;;1.73;1.63;;;;;;;5.41;92.04;99566.09;15675942;28;20304;-45
2023/12/13 15:34:39;;;;;;;9.43;3.13;;;;;;;5.12;93.10;99581.41;15676114;28;20573;-49
2023/12/13 15:42:13;;;;;;;2.03;1.80;;;;;;;5.40;92.64;99582.25;15672304;28;20106;-48
2023/12/13 15:49:48;;;;;;;0.25;0.25;;;;;;;5.43;91.12;99580.00;15672296;28;20076;-45
2023/12/13 15:57:22;;;;;;;1.30;0.95;;;;;;;5.59;89.78;99598.22;15672203;28;20486;-53
2023/12/13 16:04:57;;;;;;;1.65;1.55;;;;;;;5.14;92.46;99602.50;15670412;28;20045;-48
2023/12/13 16:12:31;;;;;;;1.00;0.90;;;;;;;5.36;91.11;99614.63;15624373;28;20140;-46
2023/12/13 16:20:09;;;;;;;2.65;2.25;;;;;;;5.24;92.84;99613.56;15675291;28;20766;-45
2023/12/13 16:27:43;;;;;;;0.70;0.70;;;;;;;5.37;93.28;99612.78;15686892;28;20554;-45
2023/12/13 16:35:18;;;;;;;0.80;0.80;;;;;;;5.26;91.96;99624.00;15668877;28;20060;-44
2023/12/13 16:42:53;;;;;;;1.50;1.40;;;;;;;5.89;90.88;99637.72;15686475;28;20080;-46
2023/12/13 16:50:29;;;;;;;0.75;0.63;;;;;;;5.34;91.18;99597.22;15662077;28;20071;-52
2023/12/13 16:58:03;;;;;;;1.52;0.77;;;;;;;5.17;92.26;99642.00;15651571;28;20048;-48
2023/12/13 17:05:39;;;;;;;0.98;0.98;;;;;;;5.51;92.39;99662.31;15667900;28;20133;-52
2023/12/13 17:13:12;;;;;;;1.05;0.93;;;;;;;5.36;91.47;99673.16;15667343;28;20041;-48
2023/12/13 17:20:47;;;;;;;2.20;2.05;;;;;;;5.54;89.68;99688.50;15665670;28;20071;-50
2023/12/13 17:28:20;;;;;;;2.10;1.35;;;;;;;5.54;89.42;99685.84;15682597;28;20087;-49
2023/12/13 17:35:56;;;;;;;0.63;0.63;;;;;;;5.69;89.74;99696.31;15685783;28;20406;-50
2023/12/13 17:43:30;;;;;;;2.33;2.05;;;;;;;5.77;89.13;99684.63;15684452;28;20071;-50
2023/12/13 17:51:08;;;;;;;2.42;2.03;;;;;;;5.53;90.09;99697.53;15683448;28;20045;-46
2023/12/13 17:58:43;;;;;;;2.08;1.75;;;;;;;5.32;90.73;99700.38;15684152;28;20035;-45
2023/12/13 18:06:18;;;;;;;0.85;0.68;;;;;;;5.17;91.26;99710.34;15677285;28;20052;-43
2023/12/13 18:13:51;;;;;;;0.20;0.20;;;;;;;5.63;89.74;99715.75;15643532;28;20049;-47
2023/12/13 18:21:28;;;;;;;0.88;0.88;;;;;;;5.05;91.94;99716.25;15672970;28;20044;-48
2023/12/13 18:29:02;;;;;;;7.18;2.95;;;;;;;5.14;92.00;99732.84;15681698;28;20140;-49
2023/12/13 18:36:37;;;;;;;2.42;1.27;;;;;;;5.04;92.49;99748.38;15685726;28;20319;-46
2023/12/13 18:44:11;;;;;;;0.35;0.35;;;;;;;5.29;91.63;99749.47;15659142;28;20132;-48
2023/12/13 18:51:50;;;;;;;0.75;0.75;;;;;;;5.28;92.03;99749.69;15641632;28;20045;-51
2023/12/13 18:59:23;;;;;;;0.80;0.65;;;;;;;5.37;91.24;99751.13;15672456;28;20064;-48
2023/12/13 19:07:01;;;;;;;2.22;2.08;;;;;;;4.89;92.95;99760.97;15673216;28;20453;-47
2023/12/13 19:14:35;;;;;;;5.07;2.05;;;;;;;5.28;91.57;99766.47;15676245;28;20044;-47
2023/12/13 19:22:11;;;;;;;0.73;0.73;;;;;;;5.28;91.78;99782.44;15677389;28;20045;-48
2023/12/13 19:29:45;;;;;;;1.40;1.30;;;;;;;4.98;92.41;99783.72;15655352;28;20033;-46
2023/12/13 19:37:19;;;;;;;0.60;0.60;;;;;;;5.05;92.60;99801.34;15658301;28;20068;-42
2023/12/13 19:44:53;;;;;;;0.20;0.20;;;;;;;5.02;92.64;99814.22;15639478;28;20449;-45
2023/12/13 19:52:28;;;;;;;1.15;0.73;;;;;;;4.91;93.09;99831.56;15658634;28;20510;-48
2023/12/13 20:00:01;;;;;;;0.85;0.85;;;;;;;4.98;92.30;99836.91;15674119;28;20048;-47
2023/12/13 20:07:46;;;;;;;1.00;0.60;;;;;;;5.09;92.73;99836.38;15656598;28;20364;-45
2023/12/13 20:15:20;;;;;;;0.68;0.57;;;;;;;4.99;92.47;99843.84;15630060;28;20049;-46
2023/12/13 20:22:55;;;;;;;0.15;0.13;;;;;;;4.89;92.45;99852.19;15646505;28;20470;-47
2023/12/13 20:30:30;;;;;;;0.88;0.82;;;;;;;5.21;90.86;99855.22;15672861;28;20099;-45
2023/12/13 20:38:04;;;;;;;0.57;0.57;;;;;;;4.93;91.61;99865.91;15669375;28;20041;-47
2023/12/13 20:45:39;;;;;;;0.28;0.28;;;;;;;5.11;91.32;99880.34;15642631;28;20482;-48
2023/12/13 20:53:13;;;;;;;;;;;;;;;5.37;90.02;99897.50;15669414;28;20049;-46
2023/12/13 21:00:47;;;;;;;4.40;0.73;;;;;;;5.01;90.98;99913.66;15672779;28;19943;-51
2023/12/13 21:08:21;;;;;;;;;;;;;;;4.96;90.48;99908.91;15664781;28;20103;-48
2023/12/13 21:15:55;;;;;;;4.65;2.15;;;;;;;5.17;90.45;99926.63;15680879;28;20389;-45
2023/12/13 21:23:29;;;;;;;0.22;0.22;;;;;;;5.29;89.37;99933.06;15682931;28;20398;-49
2023/12/13 21:31:03;;;;;;;0.10;0.10;;;;;;;5.49;87.44;99948.31;15664461;28;20509;-50
2023/12/13 21:38:38;;;;;;;1.35;1.27;;;;;;;5.10;89.05;99949.72;15648874;28;20041;-49
2023/12/13 21:46:20;;;;;;;0.40;0.35;;;;;;;5.08;89.22;99947.25;15654190;28;20133;-47
2023/12/13 21:53:55;;;;;;;1.25;1.15;;;;;;;4.91;90.04;99975.16;15636858;28;20053;-47
2023/12/13 22:01:28;;;;;;;1.63;1.52;;;;;;;5.06;88.90;99981.19;15682440;28;20090;-48
2023/12/13 22:09:04;;;;;;;0.85;0.85;;;;;;;5.74;87.18;99993.94;15678733;28;20511;-47
2023/12/13 22:16:38;;;;;;;1.25;1.15;;;;;;;5.60;86.57;99998.34;15677224;28;20041;-48
2023/12/13 22:24:15;;;;;;;4.68;0.65;;;;;;;5.65;85.59;100011.91;15651099;28;20040;-50
2023/12/13 22:31:49;;;;;;;0.25;0.25;;;;;;;5.33;86.95;100029.28;15663922;28;20045;-45
2023/12/13 22:39:25;;;;;;;1.08;0.52;;;;;;;4.98;87.84;100028.38;15643376;28;20052;-44
2023/12/13 22:47:00;;;;;;;0.30;0.30;;;;;;;5.01;87.99;100028.00;15668531;28;20049;-47
2023/12/13 22:54:35;;;;;;;;;;;;;;;4.85;89.25;100032.56;15650127;28;20052;-44
2023/12/13 23:02:08;;;;;;;0.10;0.10;;;;;;;4.76;89.48;100035.56;15657477;28;19920;-44
2023/12/13 23:09:47;;;;;;;0.10;0.10;;;;;;;4.65;89.09;100033.38;15667575;28;20048;-45
2023/12/13 23:17:20;;;;;;;0.43;0.43;;;;;;;4.71;89.26;100038.78;15647645;28;20126;-45
2023/12/13 23:24:55;;;;;;;0.32;0.32;;;;;;;4.72;89.05;100050.25;15659116;28;20057;-47
2023/12/13 23:32:29;;;;;;;0.00;0.00;;;;;;;4.63;88.87;100062.81;15657600;28;20048;-46
2023/12/13 23:40:04;;;;;;;0.28;0.28;;;;;;;4.83;87.92;100079.78;15655948;28;20117;-44
2023/12/13 23:47:38;;;;;;;0.68;0.43;;;;;;;4.78;87.72;100087.50;15650610;28;20056;-46
2023/12/13 23:55:12;;;;;;;1.88;1.08;;;;;;;5.01;87.06;100097.16;15647428;28;20041;-45
